Mastaga, Azerbaijan
Current Conditions -  °F | °C
As of 1:00 AM on Saturday 20 Dec 2014 (Local Time) from UBBB Reporting Station
Broken Clouds Broken Clouds  
Wind Chill: 39°   Ceiling: 1100
Heat Index: 43°   Visibility: 6mi
Dew Point: 41°   Wind: 7mph
Humidity: 93%   Direction: 320°NW
Pressure: 30.15"   Gusts: NA
Location:  40.54°N, 49.99°E
Report Text: UBBB 192000Z 32006KT 9999 BKN011 06/05 Q1021 88CLRD70NOSIG
Loading
Personal Weather Stations






























Interactive Weather Map New forecast layout! Learn more

10-Day Weather Forecast

Advertisements
Track Severe Weather on mobile